sensor_id;sensor_type;location;lat;lon;timestamp;pressure;altitude;pressure_sealevel;temperature;humidity
16451;BME280;12243;42.708;23.310;2023-12-07T00:02:03;94665.19;;;6.01;100.00
16451;BME280;12243;42.708;23.310;2023-12-07T00:04:30;94670.97;;;6.05;100.00
16451;BME280;12243;42.708;23.310;2023-12-07T00:06:57;94669.84;;;5.96;100.00
16451;BME280;12243;42.708;23.310;2023-12-07T00:09:24;94667.78;;;6.01;100.00
16451;BME280;12243;42.708;23.310;2023-12-07T00:11:52;94669.31;;;6.04;100.00
16451;BME280;12243;42.708;23.310;2023-12-07T00:14:19;94672.66;;;5.93;100.00
16451;BME280;12243;42.708;23.310;2023-12-07T00:16:46;94667.25;;;5.96;100.00
16451;BME280;12243;42.708;23.310;2023-12-07T00:19:13;94665.88;;;6.03;100.00
16451;BME280;12243;42.708;23.310;2023-12-07T00:21:40;94670.63;;;6.09;100.00
16451;BME280;12243;42.708;23.310;2023-12-07T00:24:07;94665.03;;;6.15;100.00
16451;BME280;12243;42.708;23.310;2023-12-07T00:26:34;94668.38;;;6.29;100.00
16451;BME280;12243;42.708;23.310;2023-12-07T00:29:06;94666.22;;;6.23;100.00
16451;BME280;12243;42.708;23.310;2023-12-07T00:31:33;94665.63;;;6.19;100.00
16451;BME280;12243;42.708;23.310;2023-12-07T00:34:00;94672.44;;;6.20;100.00
16451;BME280;12243;42.708;23.310;2023-12-07T00:36:27;94654.72;;;6.27;100.00
16451;BME280;12243;42.708;23.310;2023-12-07T00:38:54;94666.50;;;6.31;100.00
16451;BME280;12243;42.708;23.310;2023-12-07T00:41:21;94658.63;;;6.32;100.00
16451;BME280;12243;42.708;23.310;2023-12-07T00:43:48;94667.00;;;6.36;100.00
16451;BME280;12243;42.708;23.310;2023-12-07T00:46:16;94667.00;;;6.36;100.00
16451;BME280;12243;42.708;23.310;2023-12-07T00:48:43;94668.53;;;6.38;100.00
16451;BME280;12243;42.708;23.310;2023-12-07T00:51:10;94672.66;;;6.41;100.00
16451;BME280;12243;42.708;23.310;2023-12-07T00:53:37;94667.94;;;6.35;100.00
16451;BME280;12243;42.708;23.310;2023-12-07T00:56:05;94666.50;;;6.31;100.00
16451;BME280;12243;42.708;23.310;2023-12-07T00:58:32;94658.63;;;6.32;100.00
16451;BME280;12243;42.708;23.310;2023-12-07T01:00:59;94664.41;;;6.36;100.00
16451;BME280;12243;42.708;23.310;2023-12-07T01:03:27;94667.47;;;6.41;100.00
16451;BME280;12243;42.708;23.310;2023-12-07T01:05:55;94666.78;;;6.39;100.00
16451;BME280;12243;42.708;23.310;2023-12-07T01:08:22;94660.66;;;6.40;100.00
16451;BME280;12243;42.708;23.310;2023-12-07T01:10:49;94657.59;;;6.35;100.00
16451;BME280;12243;42.708;23.310;2023-12-07T01:13:16;94659.03;;;6.39;100.00
16451;BME280;12243;42.708;23.310;2023-12-07T01:15:43;94656.44;;;6.39;100.00
16451;BME280;12243;42.708;23.310;2023-12-07T01:18:10;94665.41;;;6.46;100.00
16451;BME280;12243;42.708;23.310;2023-12-07T01:20:38;94659.53;;;6.55;100.00
16451;BME280;12243;42.708;23.310;2023-12-07T01:23:06;94660.44;;;6.43;100.00
16451;BME280;12243;42.708;23.310;2023-12-07T01:25:34;94670.34;;;6.49;100.00
16451;BME280;12243;42.708;23.310;2023-12-07T01:28:01;94662.53;;;6.38;100.00
16451;BME280;12243;42.708;23.310;2023-12-07T01:30:28;94656.81;;;6.22;100.00
16451;BME280;12243;42.708;23.310;2023-12-07T01:32:55;94660.72;;;6.27;100.00
16451;BME280;12243;42.708;23.310;2023-12-07T01:35:22;94655.84;;;6.35;100.00
16451;BME280;12243;42.708;23.310;2023-12-07T01:37:50;94656.41;;;6.28;100.00
16451;BME280;12243;42.708;23.310;2023-12-07T01:40:17;94658.50;;;6.34;100.00
16451;BME280;12243;42.708;23.310;2023-12-07T01:42:49;94654.94;;;6.24;100.00
16451;BME280;12243;42.708;23.310;2023-12-07T01:45:16;94653.72;;;6.16;100.00
16451;BME280;12243;42.708;23.310;2023-12-07T01:47:44;94647.41;;;6.20;100.00
16451;BME280;12243;42.708;23.310;2023-12-07T01:50:11;94652.97;;;6.03;100.00
16451;BME280;12243;42.708;23.310;2023-12-07T01:52:44;94651.09;;;6.05;100.00
16451;BME280;12243;42.708;23.310;2023-12-07T01:55:14;94644.00;;;5.96;100.00
16451;BME280;12243;42.708;23.310;2023-12-07T01:57:41;94649.69;;;6.01;100.00
16451;BME280;12243;42.708;23.310;2023-12-07T02:00:10;94646.38;;;5.99;100.00
16451;BME280;12243;42.708;23.310;2023-12-07T02:02:38;94658.72;;;5.83;100.00
16451;BME280;12243;42.708;23.310;2023-12-07T02:05:05;94643.47;;;5.91;100.00
16451;BME280;12243;42.708;23.310;2023-12-07T02:07:34;94635.72;;;5.91;100.00
16451;BME280;12243;42.708;23.310;2023-12-07T02:10:00;94636.88;;;5.87;100.00
16451;BME280;12243;42.708;23.310;2023-12-07T02:12:30;94647.22;;;5.87;100.00
16451;BME280;12243;42.708;23.310;2023-12-07T02:14:57;94640.50;;;5.97;100.00
16451;BME280;12243;42.708;23.310;2023-12-07T02:17:31;94637.09;;;5.96;100.00
16451;BME280;12243;42.708;23.310;2023-12-07T02:20:05;94643.91;;;5.97;100.00
16451;BME280;12243;42.708;23.310;2023-12-07T02:22:40;94647.47;;;6.08;100.00
16451;BME280;12243;42.708;23.310;2023-12-07T02:25:10;94637.63;;;6.13;100.00
16451;BME280;12243;42.708;23.310;2023-12-07T02:27:39;94631.97;;;6.32;100.00
16451;BME280;12243;42.708;23.310;2023-12-07T02:30:08;94633.81;;;6.30;100.00
16451;BME280;12243;42.708;23.310;2023-12-07T02:32:36;94631.28;;;6.17;100.00
16451;BME280;12243;42.708;23.310;2023-12-07T02:35:04;94636.97;;;6.22;100.00
16451;BME280;12243;42.708;23.310;2023-12-07T02:37:35;94643.59;;;6.13;100.00
16451;BME280;12243;42.708;23.310;2023-12-07T02:40:06;94638.59;;;5.99;100.00
16451;BME280;12243;42.708;23.310;2023-12-07T02:42:37;94632.19;;;6.05;100.00
16451;BME280;12243;42.708;23.310;2023-12-07T02:45:06;94627.19;;;6.14;100.00
16451;BME280;12243;42.708;23.310;2023-12-07T02:47:33;94634.56;;;6.08;100.00
16451;BME280;12243;42.708;23.310;2023-12-07T02:50:01;94632.66;;;6.10;100.00
16451;BME280;12243;42.708;23.310;2023-12-07T02:52:28;94632.91;;;6.07;100.00
16451;BME280;12243;42.708;23.310;2023-12-07T02:54:55;94632.78;;;6.08;100.00
16451;BME280;12243;42.708;23.310;2023-12-07T02:57:22;94626.69;;;6.09;100.00
16451;BME280;12243;42.708;23.310;2023-12-07T02:59:49;94625.69;;;5.99;100.00
16451;BME280;12243;42.708;23.310;2023-12-07T03:02:17;94630.19;;;6.08;100.00
16451;BME280;12243;42.708;23.310;2023-12-07T03:04:44;94634.16;;;6.01;100.00
16451;BME280;12243;42.708;23.310;2023-12-07T03:07:11;94634.19;;;5.88;100.00
16451;BME280;12243;42.708;23.310;2023-12-07T03:09:38;94637.91;;;5.84;100.00
16451;BME280;12243;42.708;23.310;2023-12-07T03:12:06;94639.16;;;5.79;100.00
16451;BME280;12243;42.708;23.310;2023-12-07T03:14:33;94635.47;;;5.83;100.00
16451;BME280;12243;42.708;23.310;2023-12-07T03:17:00;94642.25;;;5.84;100.00
16451;BME280;12243;42.708;23.310;2023-12-07T03:19:28;94645.69;;;5.71;100.00
16451;BME280;12243;42.708;23.310;2023-12-07T03:21:55;94641.91;;;5.64;100.00
16451;BME280;12243;42.708;23.310;2023-12-07T03:24:23;94646.66;;;5.70;100.00
16451;BME280;12243;42.708;23.310;2023-12-07T03:26:50;94651.81;;;5.70;100.00
16451;BME280;12243;42.708;23.310;2023-12-07T03:29:17;94645.19;;;5.79;100.00
16451;BME280;12243;42.708;23.310;2023-12-07T03:31:43;94650.84;;;5.84;100.00
16451;BME280;12243;42.708;23.310;2023-12-07T03:34:10;94662.50;;;5.90;100.00
16451;BME280;12243;42.708;23.310;2023-12-07T03:36:42;94655.78;;;6.00;100.00
16451;BME280;12243;42.708;23.310;2023-12-07T03:39:09;94654.25;;;5.97;100.00
16451;BME280;12243;42.708;23.310;2023-12-07T03:41:37;94657.69;;;6.09;100.00
16451;BME280;12243;42.708;23.310;2023-12-07T03:44:05;94659.72;;;6.17;100.00
16451;BME280;12243;42.708;23.310;2023-12-07T03:46:32;94651.66;;;6.22;100.00
16451;BME280;12243;42.708;23.310;2023-12-07T03:48:59;94666.56;;;6.18;100.00
16451;BME280;12243;42.708;23.310;2023-12-07T03:51:27;94661.72;;;6.13;100.00
16451;BME280;12243;42.708;23.310;2023-12-07T03:53:55;94658.47;;;6.23;100.00
16451;BME280;12243;42.708;23.310;2023-12-07T03:56:23;94647.19;;;6.24;100.00
16451;BME280;12243;42.708;23.310;2023-12-07T03:58:50;94647.91;;;6.26;100.00
16451;BME280;12243;42.708;23.310;2023-12-07T04:01:17;94649.84;;;6.35;100.00
16451;BME280;12243;42.708;23.310;2023-12-07T04:03:44;94646.66;;;6.31;100.00
16451;BME280;12243;42.708;23.310;2023-12-07T04:06:12;94654.06;;;6.36;100.00
16451;BME280;12243;42.708;23.310;2023-12-07T04:08:39;94648.91;;;6.36;100.00
16451;BME280;12243;42.708;23.310;2023-12-07T04:11:08;94646.94;;;6.51;100.00
16451;BME280;12243;42.708;23.310;2023-12-07T04:13:35;94645.47;;;6.59;100.00
16451;BME280;12243;42.708;23.310;2023-12-07T04:16:02;94654.69;;;6.51;100.00
16451;BME280;12243;42.708;23.310;2023-12-07T04:18:29;94652.56;;;6.44;100.00
16451;BME280;12243;42.708;23.310;2023-12-07T04:20:56;94662.78;;;6.35;100.00
16451;BME280;12243;42.708;23.310;2023-12-07T04:23:23;94652.91;;;6.16;100.00
16451;BME280;12243;42.708;23.310;2023-12-07T04:25:50;94655.41;;;6.17;100.00
16451;BME280;12243;42.708;23.310;2023-12-07T04:28:18;94664.47;;;6.23;100.00
16451;BME280;12243;42.708;23.310;2023-12-07T04:30:45;94667.06;;;6.23;100.00
16451;BME280;12243;42.708;23.310;2023-12-07T04:33:12;94671.13;;;6.14;100.00
16451;BME280;12243;42.708;23.310;2023-12-07T04:35:40;94679.94;;;6.36;100.00
16451;BME280;12243;42.708;23.310;2023-12-07T04:38:06;94682.38;;;6.13;100.00
16451;BME280;12243;42.708;23.310;2023-12-07T04:40:33;94686.25;;;6.08;100.00
16451;BME280;12243;42.708;23.310;2023-12-07T04:43:00;94684.50;;;6.08;100.00
16451;BME280;12243;42.708;23.310;2023-12-07T04:45:29;94684.38;;;6.10;100.00
16451;BME280;12243;42.708;23.310;2023-12-07T04:47:55;94687.94;;;6.20;100.00
16451;BME280;12243;42.708;23.310;2023-12-07T04:50:23;94675.84;;;6.20;100.00
16451;BME280;12243;42.708;23.310;2023-12-07T04:52:50;94678.94;;;6.26;100.00
16451;BME280;12243;42.708;23.310;2023-12-07T04:55:17;94685.97;;;6.24;100.00
16451;BME280;12243;42.708;23.310;2023-12-07T04:57:44;94686.56;;;6.27;100.00
16451;BME280;12243;42.708;23.310;2023-12-07T05:00:11;94686.19;;;6.20;100.00
16451;BME280;12243;42.708;23.310;2023-12-07T05:02:40;94693.25;;;6.18;100.00
16451;BME280;12243;42.708;23.310;2023-12-07T05:05:07;94698.84;;;6.12;100.00
16451;BME280;12243;42.708;23.310;2023-12-07T05:07:35;94695.91;;;6.17;100.00
16451;BME280;12243;42.708;23.310;2023-12-07T05:10:03;94693.06;;;6.33;100.00
16451;BME280;12243;42.708;23.310;2023-12-07T05:12:30;94693.03;;;6.22;100.00
16451;BME280;12243;42.708;23.310;2023-12-07T05:14:58;94696.53;;;6.20;100.00
16451;BME280;12243;42.708;23.310;2023-12-07T05:17:25;94705.38;;;6.05;100.00
16451;BME280;12243;42.708;23.310;2023-12-07T05:19:53;94706.81;;;6.09;100.00
16451;BME280;12243;42.708;23.310;2023-12-07T05:22:20;94704.66;;;6.03;100.00
16451;BME280;12243;42.708;23.310;2023-12-07T05:24:47;94703.94;;;5.88;100.00
16451;BME280;12243;42.708;23.310;2023-12-07T05:27:15;94701.47;;;6.00;100.00
16451;BME280;12243;42.708;23.310;2023-12-07T05:29:42;94708.19;;;6.02;100.00
16451;BME280;12243;42.708;23.310;2023-12-07T05:32:09;94705.31;;;5.81;100.00
16451;BME280;12243;42.708;23.310;2023-12-07T05:34:37;94711.31;;;5.82;100.00
16451;BME280;12243;42.708;23.310;2023-12-07T05:37:05;94710.78;;;5.89;100.00
16451;BME280;12243;42.708;23.310;2023-12-07T05:39:32;94717.81;;;6.00;100.00
16451;BME280;12243;42.708;23.310;2023-12-07T05:41:59;94713.78;;;5.96;100.00
16451;BME280;12243;42.708;23.310;2023-12-07T05:44:25;94716.28;;;5.97;100.00
16451;BME280;12243;42.708;23.310;2023-12-07T05:46:52;94719.34;;;6.03;100.00
16451;BME280;12243;42.708;23.310;2023-12-07T05:49:20;94718.53;;;6.02;100.00
16451;BME280;12243;42.708;23.310;2023-12-07T05:51:47;94718.81;;;6.10;100.00
16451;BME280;12243;42.708;23.310;2023-12-07T05:54:16;94723.31;;;6.19;100.00
16451;BME280;12243;42.708;23.310;2023-12-07T05:56:44;94718.97;;;6.20;100.00
16451;BME280;12243;42.708;23.310;2023-12-07T05:59:12;94729.94;;;6.24;100.00
16451;BME280;12243;42.708;23.310;2023-12-07T06:01:39;94725.59;;;6.24;100.00
16451;BME280;12243;42.708;23.310;2023-12-07T06:04:08;94726.31;;;6.26;100.00
16451;BME280;12243;42.708;23.310;2023-12-07T06:06:35;94725.47;;;6.26;100.00
16451;BME280;12243;42.708;23.310;2023-12-07T06:09:02;94731.38;;;6.28;100.00
16451;BME280;12243;42.708;23.310;2023-12-07T06:11:32;94729.00;;;6.25;100.00
16451;BME280;12243;42.708;23.310;2023-12-07T06:13:59;94733.03;;;6.29;100.00
16451;BME280;12243;42.708;23.310;2023-12-07T06:16:26;94727.25;;;6.25;100.00
16451;BME280;12243;42.708;23.310;2023-12-07T06:18:53;94732.50;;;6.24;100.00
16451;BME280;12243;42.708;23.310;2023-12-07T06:21:20;94731.38;;;6.28;100.00
16451;BME280;12243;42.708;23.310;2023-12-07T06:23:47;94742.22;;;6.33;100.00
16451;BME280;12243;42.708;23.310;2023-12-07T06:26:14;94743.00;;;6.46;100.00
16451;BME280;12243;42.708;23.310;2023-12-07T06:28:42;94742.19;;;6.46;100.00
16451;BME280;12243;42.708;23.310;2023-12-07T06:31:09;94735.63;;;6.53;100.00
16451;BME280;12243;42.708;23.310;2023-12-07T06:33:37;94742.31;;;6.55;100.00
16451;BME280;12243;42.708;23.310;2023-12-07T06:36:05;94748.03;;;6.72;100.00
16451;BME280;12243;42.708;23.310;2023-12-07T06:38:32;94745.41;;;6.84;100.00
16451;BME280;12243;42.708;23.310;2023-12-07T06:41:00;94744.56;;;6.84;100.00
16451;BME280;12243;42.708;23.310;2023-12-07T06:43:30;94743.38;;;6.77;100.00
16451;BME280;12243;42.708;23.310;2023-12-07T06:45:58;94750.53;;;6.73;100.00
16451;BME280;12243;42.708;23.310;2023-12-07T06:48:25;94752.19;;;6.74;100.00
16451;BME280;12243;42.708;23.310;2023-12-07T06:50:53;94746.78;;;6.77;100.00
16451;BME280;12243;42.708;23.310;2023-12-07T06:53:20;94757.56;;;6.71;100.00
16451;BME280;12243;42.708;23.310;2023-12-07T06:55:47;94749.31;;;6.66;100.00
16451;BME280;12243;42.708;23.310;2023-12-07T06:58:13;94756.91;;;6.80;100.00
16451;BME280;12243;42.708;23.310;2023-12-07T07:00:40;94750.88;;;6.80;100.00
16451;BME280;12243;42.708;23.310;2023-12-07T07:03:10;94744.97;;;6.66;100.00
16451;BME280;12243;42.708;23.310;2023-12-07T07:05:37;94751.63;;;6.58;100.00
16451;BME280;12243;42.708;23.310;2023-12-07T07:08:05;94751.97;;;6.53;100.00
16451;BME280;12243;42.708;23.310;2023-12-07T07:10:33;94755.63;;;6.38;100.00
16451;BME280;12243;42.708;23.310;2023-12-07T07:13:00;94754.41;;;6.31;100.00
16451;BME280;12243;42.708;23.310;2023-12-07T07:15:28;94761.47;;;6.29;100.00
16451;BME280;12243;42.708;23.310;2023-12-07T07:17:55;94762.28;;;6.29;100.00
16451;BME280;12243;42.708;23.310;2023-12-07T07:20:23;94756.09;;;6.32;100.00
16451;BME280;12243;42.708;23.310;2023-12-07T07:22:50;94765.63;;;6.31;100.00
16451;BME280;12243;42.708;23.310;2023-12-07T07:25:17;94770.53;;;6.34;100.00
16451;BME280;12243;42.708;23.310;2023-12-07T07:27:45;94770.19;;;6.28;100.00
16451;BME280;12243;42.708;23.310;2023-12-07T07:30:12;94765.22;;;6.25;100.00
16451;BME280;12243;42.708;23.310;2023-12-07T07:32:39;94771.81;;;6.29;100.00
16451;BME280;12243;42.708;23.310;2023-12-07T07:35:07;94777.94;;;6.28;100.00
16451;BME280;12243;42.708;23.310;2023-12-07T07:37:38;94769.44;;;6.26;100.00
16451;BME280;12243;42.708;23.310;2023-12-07T07:40:08;94771.16;;;6.14;100.00
16451;BME280;12243;42.708;23.310;2023-12-07T07:42:37;94778.19;;;5.99;100.00
16451;BME280;12243;42.708;23.310;2023-12-07T07:45:06;94792.44;;;5.92;100.00
16451;BME280;12243;42.708;23.310;2023-12-07T07:47:33;94790.28;;;5.73;100.00
16451;BME280;12243;42.708;23.310;2023-12-07T07:50:00;94781.19;;;5.67;100.00
16451;BME280;12243;42.708;23.310;2023-12-07T07:52:31;94784.91;;;5.63;100.00
16451;BME280;12243;42.708;23.310;2023-12-07T07:55:00;94789.88;;;5.54;100.00
16451;BME280;12243;42.708;23.310;2023-12-07T07:57:28;94791.13;;;5.48;100.00
16451;BME280;12243;42.708;23.310;2023-12-07T07:59:56;94800.03;;;5.44;100.00
16451;BME280;12243;42.708;23.310;2023-12-07T08:02:23;94804.34;;;5.56;100.00
16451;BME280;12243;42.708;23.310;2023-12-07T08:04:49;94806.59;;;5.61;100.00
16451;BME280;12243;42.708;23.310;2023-12-07T08:07:17;94805.88;;;5.46;100.00
16451;BME280;12243;42.708;23.310;2023-12-07T08:09:44;94813.63;;;5.33;100.00
16451;BME280;12243;42.708;23.310;2023-12-07T08:12:13;94814.66;;;5.31;100.00
16451;BME280;12243;42.708;23.310;2023-12-07T08:14:40;94815.50;;;5.31;100.00
16451;BME280;12243;42.708;23.310;2023-12-07T08:17:09;94821.06;;;5.38;100.00
16451;BME280;12243;42.708;23.310;2023-12-07T08:19:36;94817.97;;;5.33;100.00
16451;BME280;12243;42.708;23.310;2023-12-07T08:22:02;94826.03;;;5.41;100.00
16451;BME280;12243;42.708;23.310;2023-12-07T08:24:29;94830.78;;;5.34;100.00
16451;BME280;12243;42.708;23.310;2023-12-07T08:26:56;94825.59;;;5.21;100.00
16451;BME280;12243;42.708;23.310;2023-12-07T08:29:24;94818.88;;;5.19;100.00
16451;BME280;12243;42.708;23.310;2023-12-07T08:31:52;94827.97;;;5.24;100.00
16451;BME280;12243;42.708;23.310;2023-12-07T08:34:19;94825.78;;;5.18;100.00
16451;BME280;12243;42.708;23.310;2023-12-07T08:36:45;94827.19;;;4.97;100.00
16451;BME280;12243;42.708;23.310;2023-12-07T08:39:13;94827.00;;;5.00;100.00
16451;BME280;12243;42.708;23.310;2023-12-07T08:41:40;94828.44;;;5.04;100.00
16451;BME280;12243;42.708;23.310;2023-12-07T08:44:07;94832.66;;;5.05;100.00
16451;BME280;12243;42.708;23.310;2023-12-07T08:46:35;94834.28;;;4.93;100.00
16451;BME280;12243;42.708;23.310;2023-12-07T08:49:02;94840.19;;;4.95;100.00
16451;BME280;12243;42.708;23.310;2023-12-07T08:51:29;94843.88;;;4.91;100.00
16451;BME280;12243;42.708;23.310;2023-12-07T08:53:56;94837.94;;;4.76;100.00
16451;BME280;12243;42.708;23.310;2023-12-07T08:56:23;94840.03;;;4.84;100.00
16451;BME280;12243;42.708;23.310;2023-12-07T08:58:51;94841.91;;;4.82;100.00
16451;BME280;12243;42.708;23.310;2023-12-07T09:01:18;94835.56;;;4.73;100.00
16451;BME280;12243;42.708;23.310;2023-12-07T09:03:46;94840.81;;;4.72;100.00
16451;BME280;12243;42.708;23.310;2023-12-07T09:06:13;94834.09;;;4.69;100.00
16451;BME280;12243;42.708;23.310;2023-12-07T09:08:40;94833.97;;;4.58;100.00
16451;BME280;12243;42.708;23.310;2023-12-07T09:11:07;94839.78;;;4.47;100.00
16451;BME280;12243;42.708;23.310;2023-12-07T09:13:34;94836.16;;;4.64;100.00
16451;BME280;12243;42.708;23.310;2023-12-07T09:16:01;94842.97;;;4.65;100.00
16451;BME280;12243;42.708;23.310;2023-12-07T09:18:29;94835.78;;;4.56;100.00
16451;BME280;12243;42.708;23.310;2023-12-07T09:20:58;94847.59;;;4.46;100.00
16451;BME280;12243;42.708;23.310;2023-12-07T09:23:26;94834.81;;;4.44;100.00
16451;BME280;12243;42.708;23.310;2023-12-07T09:25:53;94838.78;;;4.36;100.00
16451;BME280;12243;42.708;23.310;2023-12-07T09:28:20;94850.41;;;4.28;100.00
16451;BME280;12243;42.708;23.310;2023-12-07T09:30:47;94841.94;;;4.26;100.00
16451;BME280;12243;42.708;23.310;2023-12-07T09:33:14;94839.94;;;4.17;100.00
16451;BME280;12243;42.708;23.310;2023-12-07T09:35:42;94837.66;;;3.98;100.00
16451;BME280;12243;42.708;23.310;2023-12-07T09:38:10;94836.91;;;3.96;100.00
16451;BME280;12243;42.708;23.310;2023-12-07T09:40:37;94838.75;;;4.09;100.00
16451;BME280;12243;42.708;23.310;2023-12-07T09:43:04;94845.00;;;4.19;100.00
16451;BME280;12243;42.708;23.310;2023-12-07T09:45:31;94837.53;;;4.14;100.00
16451;BME280;12243;42.708;23.310;2023-12-07T09:48:00;94841.34;;;4.09;100.00
16451;BME280;12243;42.708;23.310;2023-12-07T09:50:27;94836.44;;;4.04;100.00
16451;BME280;12243;42.708;23.310;2023-12-07T09:52:56;94841.06;;;3.99;100.00
16451;BME280;12243;42.708;23.310;2023-12-07T09:55:24;94840.13;;;4.00;100.00
16451;BME280;12243;42.708;23.310;2023-12-07T09:57:51;94844.28;;;4.02;100.00
16451;BME280;12243;42.708;23.310;2023-12-07T10:00:20;94842.63;;;4.01;100.00
16451;BME280;12243;42.708;23.310;2023-12-07T10:02:47;94845.38;;;3.84;100.00
16451;BME280;12243;42.708;23.310;2023-12-07T10:05:15;94843.81;;;3.67;100.00
16451;BME280;12243;42.708;23.310;2023-12-07T10:07:43;94840.31;;;3.68;100.00
16451;BME280;12243;42.708;23.310;2023-12-07T10:10:12;94848.03;;;3.68;100.00
16451;BME280;12243;42.708;23.310;2023-12-07T10:12:46;94848.97;;;3.67;100.00
16451;BME280;12243;42.708;23.310;2023-12-07T10:15:14;94847.84;;;3.57;100.00
16451;BME280;12243;42.708;23.310;2023-12-07T10:17:49;94853.16;;;3.54;100.00
16451;BME280;12243;42.708;23.310;2023-12-07T10:20:17;94844.34;;;3.58;100.00
16451;BME280;12243;42.708;23.310;2023-12-07T10:22:45;94835.78;;;3.57;100.00
16451;BME280;12243;42.708;23.310;2023-12-07T10:25:12;94839.03;;;3.61;100.00
16451;BME280;12243;42.708;23.310;2023-12-07T10:27:41;94834.03;;;3.58;100.00
16451;BME280;12243;42.708;23.310;2023-12-07T10:30:11;94843.56;;;3.42;100.00
16451;BME280;12243;42.708;23.310;2023-12-07T10:32:39;94844.69;;;3.38;100.00
16451;BME280;12243;42.708;23.310;2023-12-07T10:35:07;94834.66;;;3.33;100.00
16451;BME280;12243;42.708;23.310;2023-12-07T10:37:35;94837.13;;;3.34;100.00
16451;BME280;12243;42.708;23.310;2023-12-07T10:40:03;94843.78;;;3.39;100.00
16451;BME280;12243;42.708;23.310;2023-12-07T10:42:33;94838.97;;;3.32;100.00
16451;BME280;12243;42.708;23.310;2023-12-07T10:45:03;94830.97;;;3.23;100.00
16451;BME280;12243;42.708;23.310;2023-12-07T10:47:35;94837.34;;;3.31;100.00
16451;BME280;12243;42.708;23.310;2023-12-07T10:50:06;94834.91;;;3.14;100.00
16451;BME280;12243;42.708;23.310;2023-12-07T10:52:37;94838.75;;;3.07;100.00
16451;BME280;12243;42.708;23.310;2023-12-07T10:55:09;94838.03;;;3.19;100.00
16451;BME280;12243;42.708;23.310;2023-12-07T10:57:38;94839.16;;;3.29;100.00
16451;BME280;12243;42.708;23.310;2023-12-07T11:00:10;94846.69;;;3.32;100.00
16451;BME280;12243;42.708;23.310;2023-12-07T11:02:39;94840.47;;;3.37;100.00
16451;BME280;12243;42.708;23.310;2023-12-07T11:05:07;94848.56;;;3.45;100.00
16451;BME280;12243;42.708;23.310;2023-12-07T11:07:41;94847.66;;;3.46;100.00
16451;BME280;12243;42.708;23.310;2023-12-07T11:10:13;94851.09;;;3.30;100.00
16451;BME280;12243;42.708;23.310;2023-12-07T11:12:46;94846.53;;;3.05;100.00
16451;BME280;12243;42.708;23.310;2023-12-07T11:15:14;94843.31;;;3.02;100.00
16451;BME280;12243;42.708;23.310;2023-12-07T11:17:50;94840.91;;;2.99;100.00
16451;BME280;12243;42.708;23.310;2023-12-07T11:20:20;94853.31;;;3.06;100.00
16451;BME280;12243;42.708;23.310;2023-12-07T11:22:47;94842.16;;;3.07;100.00
16451;BME280;12243;42.708;23.310;2023-12-07T11:25:16;94842.22;;;3.06;100.00
16451;BME280;12243;42.708;23.310;2023-12-07T11:27:46;94849.16;;;3.20;100.00
16451;BME280;12243;42.708;23.310;2023-12-07T11:30:16;94848.84;;;3.10;100.00
16451;BME280;12243;42.708;23.310;2023-12-07T11:32:44;94847.56;;;3.17;100.00
16451;BME280;12243;42.708;23.310;2023-12-07T11:35:13;94847.97;;;3.25;100.00
16451;BME280;12243;42.708;23.310;2023-12-07T11:38:01;94843.06;;;3.21;100.00
16451;BME280;12243;42.708;23.310;2023-12-07T11:40:29;94844.81;;;3.20;100.00
16451;BME280;12243;42.708;23.310;2023-12-07T11:42:57;94830.22;;;3.21;100.00
16451;BME280;12243;42.708;23.310;2023-12-07T11:45:39;94839.31;;;3.26;100.00
16451;BME280;12243;42.708;23.310;2023-12-07T11:48:08;94827.22;;;3.28;100.00
16451;BME280;12243;42.708;23.310;2023-12-07T11:50:53;94838.69;;;3.23;100.00
16451;BME280;12243;42.708;23.310;2023-12-07T11:53:21;94834.34;;;3.23;100.00
16451;BME280;12243;42.708;23.310;2023-12-07T11:55:49;94833.84;;;3.32;100.00
16451;BME280;12243;42.708;23.310;2023-12-07T11:58:16;94831.16;;;3.34;100.00
16451;BME280;12243;42.708;23.310;2023-12-07T12:00:44;94831.47;;;3.44;100.00
16451;BME280;12243;42.708;23.310;2023-12-07T12:03:12;94829.81;;;3.43;100.00
16451;BME280;12243;42.708;23.310;2023-12-07T12:05:41;94832.41;;;3.57;100.00
16451;BME280;12243;42.708;23.310;2023-12-07T12:08:08;94831.22;;;3.63;100.00
16451;BME280;12243;42.708;23.310;2023-12-07T12:10:35;94829.66;;;3.60;100.00
16451;BME280;12243;42.708;23.310;2023-12-07T12:13:03;94831.81;;;3.52;100.00
16451;BME280;12243;42.708;23.310;2023-12-07T12:15:30;94834.84;;;3.44;100.00
16451;BME280;12243;42.708;23.310;2023-12-07T12:17:58;94836.06;;;3.53;100.00
16451;BME280;12243;42.708;23.310;2023-12-07T12:20:25;94833.75;;;3.48;100.00
16451;BME280;12243;42.708;23.310;2023-12-07T12:22:54;94829.69;;;3.30;100.00
16451;BME280;12243;42.708;23.310;2023-12-07T12:25:23;94836.31;;;3.34;100.00
16451;BME280;12243;42.708;23.310;2023-12-07T12:27:52;94837.34;;;3.31;100.00
16451;BME280;12243;42.708;23.310;2023-12-07T12:30:20;94827.56;;;3.22;100.00
16451;BME280;12243;42.708;23.310;2023-12-07T12:32:48;94832.06;;;3.19;100.00
16451;BME280;12243;42.708;23.310;2023-12-07T12:35:16;94829.38;;;3.20;100.00
16451;BME280;12243;42.708;23.310;2023-12-07T12:37:43;94829.38;;;3.20;100.00
16451;BME280;12243;42.708;23.310;2023-12-07T12:40:13;94832.34;;;3.14;100.00
16451;BME280;12243;42.708;23.310;2023-12-07T12:42:42;94834.44;;;3.07;100.00
16451;BME280;12243;42.708;23.310;2023-12-07T12:45:10;94830.94;;;3.08;100.00
16451;BME280;12243;42.708;23.310;2023-12-07T12:47:38;94838.38;;;3.13;100.00
16451;BME280;12243;42.708;23.310;2023-12-07T12:50:06;94841.03;;;3.12;100.00
16451;BME280;12243;42.708;23.310;2023-12-07T12:52:33;94839.28;;;3.12;100.00
16451;BME280;12243;42.708;23.310;2023-12-07T12:55:00;94841.50;;;3.04;100.00